sensor_id;sensor_type;location;lat;lon;timestamp;P1;durP1;ratioP1;P2;durP2;ratioP2
65552;SDS011;72126;51.560;14.368;2023-08-24T00:09:48;4.47;;;4.13;;
65552;SDS011;72126;51.560;14.368;2023-08-24T00:29:25;3.75;;;3.55;;
65552;SDS011;72126;51.560;14.368;2023-08-24T00:44:11;4.28;;;3.97;;
65552;SDS011;72126;51.560;14.368;2023-08-24T00:55:46;4.05;;;3.85;;
65552;SDS011;72126;51.560;14.368;2023-08-24T00:58:11;4.10;;;3.80;;
65552;SDS011;72126;51.560;14.368;2023-08-24T01:02:33;4.00;;;3.80;;
65552;SDS011;72126;51.560;14.368;2023-08-24T01:35:17;4.20;;;3.90;;
65552;SDS011;72126;51.560;14.368;2023-08-24T02:16:43;4.13;;;3.85;;
65552;SDS011;72126;51.560;14.368;2023-08-24T02:19:08;4.17;;;3.87;;
65552;SDS011;72126;51.560;14.368;2023-08-24T02:25:09;3.90;;;3.70;;
65552;SDS011;72126;51.560;14.368;2023-08-24T02:54:18;4.10;;;3.90;;
65552;SDS011;72126;51.560;14.368;2023-08-24T02:56:44;4.30;;;4.00;;
65552;SDS011;72126;51.560;14.368;2023-08-24T03:08:34;4.00;;;3.80;;
65552;SDS011;72126;51.560;14.368;2023-08-24T03:43:18;4.75;;;4.45;;
65552;SDS011;72126;51.560;14.368;2023-08-24T03:49:31;4.68;;;4.38;;
65552;SDS011;72126;51.560;14.368;2023-08-24T04:01:59;5.07;;;4.72;;
65552;SDS011;72126;51.560;14.368;2023-08-24T04:24:43;5.05;;;4.65;;
65552;SDS011;72126;51.560;14.368;2023-08-24T04:29:13;5.10;;;4.80;;
65552;SDS011;72126;51.560;14.368;2023-08-24T04:45:10;4.78;;;4.47;;
65552;SDS011;72126;51.560;14.368;2023-08-24T04:53:56;4.80;;;4.50;;
65552;SDS011;72126;51.560;14.368;2023-08-24T04:56:21;4.90;;;4.60;;
65552;SDS011;72126;51.560;14.368;2023-08-24T05:05:18;4.72;;;4.43;;
65552;SDS011;72126;51.560;14.368;2023-08-24T05:14:46;4.63;;;4.40;;
65552;SDS011;72126;51.560;14.368;2023-08-24T05:20:56;4.75;;;4.35;;
65552;SDS011;72126;51.560;14.368;2023-08-24T05:26:41;4.82;;;4.40;;
65552;SDS011;72126;51.560;14.368;2023-08-24T05:38:29;4.57;;;4.18;;
65552;SDS011;72126;51.560;14.368;2023-08-24T05:43:04;4.53;;;4.30;;
65552;SDS011;72126;51.560;14.368;2023-08-24T05:45:29;4.70;;;4.30;;
65552;SDS011;72126;51.560;14.368;2023-08-24T05:51:52;4.75;;;4.45;;
65552;SDS011;72126;51.560;14.368;2023-08-24T05:56:01;4.95;;;4.65;;
65552;SDS011;72126;51.560;14.368;2023-08-24T05:58:26;4.68;;;4.38;;
65552;SDS011;72126;51.560;14.368;2023-08-24T06:02:51;4.75;;;4.45;;
65552;SDS011;72126;51.560;14.368;2023-08-24T06:10:25;5.13;;;4.72;;
65552;SDS011;72126;51.560;14.368;2023-08-24T06:31:47;4.40;;;4.10;;
65552;SDS011;72126;51.560;14.368;2023-08-24T06:36:20;4.55;;;4.25;;
65552;SDS011;72126;51.560;14.368;2023-08-24T06:47:20;4.70;;;4.40;;
65552;SDS011;72126;51.560;14.368;2023-08-24T06:49:45;4.70;;;4.40;;
65552;SDS011;72126;51.560;14.368;2023-08-24T06:55:53;4.68;;;4.38;;
65552;SDS011;72126;51.560;14.368;2023-08-24T07:02:24;4.85;;;4.53;;
65552;SDS011;72126;51.560;14.368;2023-08-24T07:04:50;5.13;;;4.72;;
65552;SDS011;72126;51.560;14.368;2023-08-24T07:16:38;4.90;;;4.50;;
65552;SDS011;72126;51.560;14.368;2023-08-24T07:23:06;4.60;;;4.30;;
65552;SDS011;72126;51.560;14.368;2023-08-24T07:25:31;4.57;;;4.28;;
65552;SDS011;72126;51.560;14.368;2023-08-24T07:27:56;4.50;;;4.20;;
65552;SDS011;72126;51.560;14.368;2023-08-24T07:30:22;4.93;;;4.53;;
65552;SDS011;72126;51.560;14.368;2023-08-24T07:38:32;4.85;;;4.50;;
65552;SDS011;72126;51.560;14.368;2023-08-24T07:43:03;4.90;;;4.50;;
65552;SDS011;72126;51.560;14.368;2023-08-24T07:45:28;4.73;;;4.30;;
65552;SDS011;72126;51.560;14.368;2023-08-24T07:51:32;4.70;;;4.40;;
65552;SDS011;72126;51.560;14.368;2023-08-24T07:56:01;4.82;;;4.50;;
65552;SDS011;72126;51.560;14.368;2023-08-24T08:02:05;4.80;;;4.50;;
65552;SDS011;72126;51.560;14.368;2023-08-24T08:10:33;4.50;;;4.20;;
65552;SDS011;72126;51.560;14.368;2023-08-24T08:12:58;4.78;;;4.47;;
65552;SDS011;72126;51.560;14.368;2023-08-24T08:15:23;4.97;;;4.67;;
65552;SDS011;72126;51.560;14.368;2023-08-24T08:17:49;4.75;;;4.45;;
65552;SDS011;72126;51.560;14.368;2023-08-24T08:22:12;4.90;;;4.53;;
65552;SDS011;72126;51.560;14.368;2023-08-24T08:24:37;5.05;;;4.75;;
65552;SDS011;72126;51.560;14.368;2023-08-24T08:28:58;5.00;;;4.70;;
65552;SDS011;72126;51.560;14.368;2023-08-24T08:31:23;4.68;;;4.38;;
65552;SDS011;72126;51.560;14.368;2023-08-24T08:33:48;4.53;;;4.33;;
65552;SDS011;72126;51.560;14.368;2023-08-24T08:36:13;4.55;;;4.32;;
65552;SDS011;72126;51.560;14.368;2023-08-24T08:38:39;5.10;;;4.80;;
65552;SDS011;72126;51.560;14.368;2023-08-24T08:42:28;4.93;;;4.63;;
65552;SDS011;72126;51.560;14.368;2023-08-24T08:47:00;5.00;;;4.70;;
65552;SDS011;72126;51.560;14.368;2023-08-24T08:56:29;4.47;;;4.18;;
65552;SDS011;72126;51.560;14.368;2023-08-24T08:58:55;4.55;;;4.30;;
65552;SDS011;72126;51.560;14.368;2023-08-24T09:11:44;4.32;;;4.13;;
65552;SDS011;72126;51.560;14.368;2023-08-24T09:15:24;4.65;;;4.35;;
65552;SDS011;72126;51.560;14.368;2023-08-24T09:18:11;4.10;;;3.90;;
65552;SDS011;72126;51.560;14.368;2023-08-24T09:24:31;4.60;;;4.30;;
65552;SDS011;72126;51.560;14.368;2023-08-24T09:26:57;4.60;;;4.30;;
65552;SDS011;72126;51.560;14.368;2023-08-24T09:31:15;4.15;;;3.95;;
65552;SDS011;72126;51.560;14.368;2023-08-24T09:33:42;4.87;;;4.53;;
65552;SDS011;72126;51.560;14.368;2023-08-24T09:43:12;4.90;;;4.50;;
65552;SDS011;72126;51.560;14.368;2023-08-24T09:45:38;4.47;;;4.28;;
65552;SDS011;72126;51.560;14.368;2023-08-24T09:51:37;4.53;;;4.22;;
65552;SDS011;72126;51.560;14.368;2023-08-24T09:54:06;4.75;;;4.45;;
65552;SDS011;72126;51.560;14.368;2023-08-24T09:58:44;4.30;;;4.00;;
65552;SDS011;72126;51.560;14.368;2023-08-24T10:01:14;4.68;;;4.38;;
65552;SDS011;72126;51.560;14.368;2023-08-24T10:03:42;4.90;;;4.50;;
65552;SDS011;72126;51.560;14.368;2023-08-24T10:06:08;4.82;;;4.50;;
65552;SDS011;72126;51.560;14.368;2023-08-24T10:08:38;4.70;;;4.40;;
65552;SDS011;72126;51.560;14.368;2023-08-24T10:13:18;4.70;;;4.35;;
65552;SDS011;72126;51.560;14.368;2023-08-24T10:24:51;4.50;;;4.20;;
65552;SDS011;72126;51.560;14.368;2023-08-24T10:31:13;4.47;;;4.18;;
65552;SDS011;72126;51.560;14.368;2023-08-24T10:37:28;4.80;;;4.40;;
65552;SDS011;72126;51.560;14.368;2023-08-24T10:39:54;4.93;;;4.63;;
65552;SDS011;72126;51.560;14.368;2023-08-24T10:44:05;4.82;;;4.43;;
65552;SDS011;72126;51.560;14.368;2023-08-24T10:53:45;4.47;;;4.10;;
65552;SDS011;72126;51.560;14.368;2023-08-24T10:58:04;4.32;;;4.03;;
65552;SDS011;72126;51.560;14.368;2023-08-24T11:02:26;4.60;;;4.30;;
65552;SDS011;72126;51.560;14.368;2023-08-24T11:05:05;4.30;;;4.00;;
65552;SDS011;72126;51.560;14.368;2023-08-24T11:07:59;4.43;;;4.10;;
65552;SDS011;72126;51.560;14.368;2023-08-24T11:16:46;4.00;;;3.80;;
65552;SDS011;72126;51.560;14.368;2023-08-24T11:24:34;3.92;;;3.72;;
65552;SDS011;72126;51.560;14.368;2023-08-24T11:34:50;3.75;;;3.55;;
65552;SDS011;72126;51.560;14.368;2023-08-24T11:37:18;3.90;;;3.70;;
65552;SDS011;72126;51.560;14.368;2023-08-24T11:39:45;4.00;;;3.80;;
65552;SDS011;72126;51.560;14.368;2023-08-24T11:42:10;3.97;;;3.78;;
65552;SDS011;72126;51.560;14.368;2023-08-24T11:44:45;4.25;;;3.92;;
65552;SDS011;72126;51.560;14.368;2023-08-24T11:47:15;4.15;;;3.90;;
65552;SDS011;72126;51.560;14.368;2023-08-24T11:49:41;3.88;;;3.67;;
65552;SDS011;72126;51.560;14.368;2023-08-24T11:52:07;4.57;;;3.80;;
65552;SDS011;72126;51.560;14.368;2023-08-24T11:54:33;4.00;;;3.80;;
65552;SDS011;72126;51.560;14.368;2023-08-24T12:06:26;3.63;;;3.42;;
65552;SDS011;72126;51.560;14.368;2023-08-24T12:08:52;4.30;;;4.00;;
65552;SDS011;72126;51.560;14.368;2023-08-24T12:11:18;4.10;;;3.80;;
65552;SDS011;72126;51.560;14.368;2023-08-24T12:13:48;3.90;;;3.70;;
65552;SDS011;72126;51.560;14.368;2023-08-24T12:20:17;4.13;;;3.90;;
65552;SDS011;72126;51.560;14.368;2023-08-24T12:22:44;3.70;;;3.50;;
65552;SDS011;72126;51.560;14.368;2023-08-24T12:25:09;4.20;;;3.90;;
65552;SDS011;72126;51.560;14.368;2023-08-24T12:27:34;4.37;;;4.07;;
65552;SDS011;72126;51.560;14.368;2023-08-24T12:30:00;4.00;;;3.80;;
65552;SDS011;72126;51.560;14.368;2023-08-24T12:32:30;4.00;;;3.70;;
65552;SDS011;72126;51.560;14.368;2023-08-24T12:35:04;4.05;;;3.75;;
65552;SDS011;72126;51.560;14.368;2023-08-24T12:37:30;4.10;;;3.80;;
65552;SDS011;72126;51.560;14.368;2023-08-24T12:50:38;4.18;;;3.80;;
65552;SDS011;72126;51.560;14.368;2023-08-24T12:53:03;3.92;;;3.72;;
65552;SDS011;72126;51.560;14.368;2023-08-24T12:55:29;4.03;;;3.83;;
65552;SDS011;72126;51.560;14.368;2023-08-24T12:57:54;4.05;;;3.78;;
65552;SDS011;72126;51.560;14.368;2023-08-24T13:03:11;3.67;;;3.47;;
65552;SDS011;72126;51.560;14.368;2023-08-24T13:05:39;4.00;;;3.80;;
65552;SDS011;72126;51.560;14.368;2023-08-24T13:10:17;4.00;;;3.80;;
65552;SDS011;72126;51.560;14.368;2023-08-24T13:33:01;4.50;;;4.20;;
65552;SDS011;72126;51.560;14.368;2023-08-24T13:35:27;3.83;;;3.63;;
65552;SDS011;72126;51.560;14.368;2023-08-24T13:37:52;4.00;;;3.80;;
65552;SDS011;72126;51.560;14.368;2023-08-24T13:40:17;4.17;;;3.87;;
65552;SDS011;72126;51.560;14.368;2023-08-24T13:42:43;4.45;;;4.15;;
65552;SDS011;72126;51.560;14.368;2023-08-24T13:45:08;4.07;;;3.78;;
65552;SDS011;72126;51.560;14.368;2023-08-24T13:51:10;3.72;;;3.53;;
65552;SDS011;72126;51.560;14.368;2023-08-24T14:06:31;3.97;;;3.78;;
65552;SDS011;72126;51.560;14.368;2023-08-24T14:16:04;4.18;;;3.97;;
65552;SDS011;72126;51.560;14.368;2023-08-24T14:28:55;4.05;;;3.85;;
65552;SDS011;72126;51.560;14.368;2023-08-24T14:33:23;3.70;;;3.50;;
65552;SDS011;72126;51.560;14.368;2023-08-24T14:37:45;4.10;;;3.80;;
65552;SDS011;72126;51.560;14.368;2023-08-24T14:42:08;4.15;;;3.85;;
65552;SDS011;72126;51.560;14.368;2023-08-24T14:48:01;4.30;;;3.90;;
65552;SDS011;72126;51.560;14.368;2023-08-24T14:54:40;4.22;;;3.92;;
65552;SDS011;72126;51.560;14.368;2023-08-24T15:01:01;4.43;;;4.03;;
65552;SDS011;72126;51.560;14.368;2023-08-24T15:03:26;4.00;;;3.80;;
65552;SDS011;72126;51.560;14.368;2023-08-24T15:09:28;4.30;;;4.10;;
65552;SDS011;72126;51.560;14.368;2023-08-24T15:11:53;4.40;;;4.10;;
65552;SDS011;72126;51.560;14.368;2023-08-24T15:14:18;4.20;;;3.90;;
65552;SDS011;72126;51.560;14.368;2023-08-24T15:18:35;4.20;;;3.90;;
65552;SDS011;72126;51.560;14.368;2023-08-24T15:27:59;4.20;;;3.90;;
65552;SDS011;72126;51.560;14.368;2023-08-24T15:30:25;4.20;;;4.00;;
65552;SDS011;72126;51.560;14.368;2023-08-24T15:36:07;4.20;;;4.00;;
65552;SDS011;72126;51.560;14.368;2023-08-24T15:40:42;4.50;;;4.10;;
65552;SDS011;72126;51.560;14.368;2023-08-24T16:01:07;4.07;;;3.78;;
65552;SDS011;72126;51.560;14.368;2023-08-24T16:09:53;4.22;;;3.83;;
65552;SDS011;72126;51.560;14.368;2023-08-24T16:16:55;4.60;;;4.30;;
65552;SDS011;72126;51.560;14.368;2023-08-24T16:24:41;4.60;;;4.30;;
65552;SDS011;72126;51.560;14.368;2023-08-24T16:32:18;4.32;;;4.03;;
65552;SDS011;72126;51.560;14.368;2023-08-24T16:34:43;4.90;;;4.50;;
65552;SDS011;72126;51.560;14.368;2023-08-24T16:44:32;4.60;;;4.30;;
65552;SDS011;72126;51.560;14.368;2023-08-24T16:46:57;4.63;;;4.23;;
65552;SDS011;72126;51.560;14.368;2023-08-24T16:49:22;4.50;;;4.20;;
65552;SDS011;72126;51.560;14.368;2023-08-24T16:53:52;4.38;;;4.07;;
65552;SDS011;72126;51.560;14.368;2023-08-24T17:05:02;4.20;;;4.00;;
65552;SDS011;72126;51.560;14.368;2023-08-24T17:19:09;4.20;;;3.90;;
65552;SDS011;72126;51.560;14.368;2023-08-24T17:32:34;4.80;;;4.40;;
65552;SDS011;72126;51.560;14.368;2023-08-24T17:34:59;4.50;;;4.20;;
65552;SDS011;72126;51.560;14.368;2023-08-24T17:37:24;4.70;;;4.30;;
65552;SDS011;72126;51.560;14.368;2023-08-24T17:43:36;4.90;;;4.50;;
65552;SDS011;72126;51.560;14.368;2023-08-24T17:51:06;5.03;;;4.70;;
65552;SDS011;72126;51.560;14.368;2023-08-24T17:53:31;5.70;;;5.18;;
65552;SDS011;72126;51.560;14.368;2023-08-24T17:55:57;5.37;;;4.87;;
65552;SDS011;72126;51.560;14.368;2023-08-24T17:58:23;5.00;;;4.60;;
65552;SDS011;72126;51.560;14.368;2023-08-24T18:00:49;4.97;;;4.57;;
65552;SDS011;72126;51.560;14.368;2023-08-24T18:12:33;5.78;;;5.30;;
65552;SDS011;72126;51.560;14.368;2023-08-24T18:18:13;5.60;;;5.20;;
65552;SDS011;72126;51.560;14.368;2023-08-24T18:20:40;5.70;;;5.30;;
65552;SDS011;72126;51.560;14.368;2023-08-24T18:23:19;5.53;;;5.13;;
65552;SDS011;72126;51.560;14.368;2023-08-24T18:25:44;5.68;;;5.07;;
65552;SDS011;72126;51.560;14.368;2023-08-24T18:28:09;5.40;;;5.00;;
65552;SDS011;72126;51.560;14.368;2023-08-24T18:34:45;5.40;;;5.00;;
65552;SDS011;72126;51.560;14.368;2023-08-24T18:39:16;5.45;;;4.93;;
65552;SDS011;72126;51.560;14.368;2023-08-24T18:41:42;5.38;;;5.07;;
65552;SDS011;72126;51.560;14.368;2023-08-24T18:44:07;5.33;;;4.83;;
65552;SDS011;72126;51.560;14.368;2023-08-24T18:46:32;5.15;;;4.70;;
65552;SDS011;72126;51.560;14.368;2023-08-24T18:56:01;4.78;;;4.47;;
65552;SDS011;72126;51.560;14.368;2023-08-24T19:03:40;5.35;;;4.80;;
65552;SDS011;72126;51.560;14.368;2023-08-24T19:10:54;5.07;;;4.75;;
65552;SDS011;72126;51.560;14.368;2023-08-24T19:13:20;5.33;;;4.83;;
65552;SDS011;72126;51.560;14.368;2023-08-24T19:15:45;5.27;;;4.90;;
65552;SDS011;72126;51.560;14.368;2023-08-24T19:18:10;5.28;;;4.78;;
65552;SDS011;72126;51.560;14.368;2023-08-24T19:22:30;5.45;;;5.05;;
65552;SDS011;72126;51.560;14.368;2023-08-24T19:31:09;5.10;;;4.72;;
65552;SDS011;72126;51.560;14.368;2023-08-24T19:35:31;5.13;;;4.72;;
65552;SDS011;72126;51.560;14.368;2023-08-24T19:48:23;5.68;;;4.80;;
65552;SDS011;72126;51.560;14.368;2023-08-24T19:54:32;5.22;;;4.82;;
65552;SDS011;72126;51.560;14.368;2023-08-24T20:14:45;4.78;;;4.47;;
65552;SDS011;72126;51.560;14.368;2023-08-24T20:19:51;5.32;;;4.93;;
65552;SDS011;72126;51.560;14.368;2023-08-24T20:22:16;4.90;;;4.60;;
65552;SDS011;72126;51.560;14.368;2023-08-24T20:28:37;5.40;;;5.00;;
65552;SDS011;72126;51.560;14.368;2023-08-24T20:34:26;5.00;;;4.70;;
65552;SDS011;72126;51.560;14.368;2023-08-24T20:38:44;5.10;;;4.70;;
65552;SDS011;72126;51.560;14.368;2023-08-24T20:41:10;4.87;;;4.47;;
65552;SDS011;72126;51.560;14.368;2023-08-24T20:43:35;4.70;;;4.40;;
65552;SDS011;72126;51.560;14.368;2023-08-24T20:52:26;5.15;;;4.82;;
65552;SDS011;72126;51.560;14.368;2023-08-24T20:54:51;5.00;;;4.70;;
65552;SDS011;72126;51.560;14.368;2023-08-24T21:18:27;4.50;;;4.20;;
65552;SDS011;72126;51.560;14.368;2023-08-24T21:33:47;5.10;;;4.70;;
65552;SDS011;72126;51.560;14.368;2023-08-24T21:36:12;4.80;;;4.50;;
65552;SDS011;72126;51.560;14.368;2023-08-24T21:38:37;4.55;;;4.25;;
65552;SDS011;72126;51.560;14.368;2023-08-24T21:41:03;4.90;;;4.60;;
65552;SDS011;72126;51.560;14.368;2023-08-24T21:46:42;4.90;;;4.60;;
65552;SDS011;72126;51.560;14.368;2023-08-24T21:49:07;4.83;;;4.53;;
65552;SDS011;72126;51.560;14.368;2023-08-24T21:53:33;4.90;;;4.50;;
65552;SDS011;72126;51.560;14.368;2023-08-24T21:55:58;4.88;;;4.57;;
65552;SDS011;72126;51.560;14.368;2023-08-24T21:58:24;4.67;;;4.37;;
65552;SDS011;72126;51.560;14.368;2023-08-24T22:03:04;4.85;;;4.55;;
65552;SDS011;72126;51.560;14.368;2023-08-24T22:09:04;4.80;;;4.50;;
65552;SDS011;72126;51.560;14.368;2023-08-24T22:11:29;5.00;;;4.50;;
65552;SDS011;72126;51.560;14.368;2023-08-24T22:16:07;5.10;;;4.70;;
65552;SDS011;72126;51.560;14.368;2023-08-24T22:18:32;4.93;;;4.40;;
65552;SDS011;72126;51.560;14.368;2023-08-24T22:36:08;4.80;;;4.50;;
65552;SDS011;72126;51.560;14.368;2023-08-24T22:38:33;4.63;;;4.23;;
65552;SDS011;72126;51.560;14.368;2023-08-24T22:49:41;4.80;;;4.40;;
65552;SDS011;72126;51.560;14.368;2023-08-24T22:57:54;4.88;;;4.47;;
65552;SDS011;72126;51.560;14.368;2023-08-24T23:05:49;4.80;;;4.40;;
65552;SDS011;72126;51.560;14.368;2023-08-24T23:17:27;4.68;;;4.38;;
65552;SDS011;72126;51.560;14.368;2023-08-24T23:32:10;4.70;;;4.40;;
65552;SDS011;72126;51.560;14.368;2023-08-24T23:43:52;4.70;;;4.40;;
65552;SDS011;72126;51.560;14.368;2023-08-24T23:49:40;4.88;;;4.57;;
65552;SDS011;72126;51.560;14.368;2023-08-24T23:52:06;4.60;;;4.30;;
65552;SDS011;72126;51.560;14.368;2023-08-24T23:54:31;4.57;;;4.28;;
65552;SDS011;72126;51.560;14.368;2023-08-24T23:59:04;4.80;;;4.40;;
